Time;durP1;ratioP1;P1;durP2;ratioP2;P2;SDS_P1;SDS_P2;PMS_P1;PMS_P2;Temp;Humidity;BMP_temperature;BMP_pressure;BME280_temperature;BME280_humidity;BME280_pressure;Samples;Min_cycle;Max_cycle;Signal;HPM_P1;HPM_P2
2022/01/18 00:00:31;;;;;;;7.63;4.00;;;18.20;99.90;;;;;;4229036;28;20294;-78
2022/01/18 00:02:33;;;;;;;7.03;3.50;;;18.20;99.90;;;;;;4228758;27;20259;-78
2022/01/18 00:04:36;;;;;;;8.25;4.07;;;18.20;99.90;;;;;;4234708;27;20673;-78
2022/01/18 00:06:41;;;;;;;7.07;4.22;;;18.10;99.90;;;;;;4232233;27;20283;-78
2022/01/18 00:08:43;;;;;;;9.60;4.13;;;18.10;99.90;;;;;;4230716;27;20280;-78
2022/01/18 00:10:48;;;;;;;9.20;4.03;;;18.10;99.90;;;;;;4232154;27;20205;-78
2022/01/18 00:13:11;;;;;;;9.82;4.22;;;18.10;99.90;;;;;;4234969;27;20229;-78
2022/01/18 00:15:30;;;;;;;7.13;3.80;;;18.10;99.90;;;;;;4234154;27;20269;-78
2022/01/18 00:17:51;;;;;;;8.02;4.00;;;18.10;99.90;;;;;;4231526;27;20209;-78
2022/01/18 00:19:55;;;;;;;7.65;3.80;;;18.10;99.90;;;;;;4228850;28;20243;-77
2022/01/18 00:22:13;;;;;;;8.85;4.60;;;18.10;99.90;;;;;;4229441;27;20238;-77
2022/01/18 00:24:15;;;;;;;9.93;3.80;;;18.00;99.90;;;;;;4228731;28;20218;-77
2022/01/18 00:26:19;;;;;;;8.98;4.20;;;18.00;99.90;;;;;;4228208;27;20263;-77
2022/01/18 00:28:21;;;;;;;8.98;4.40;;;18.00;99.90;;;;;;4229510;27;20230;-76
2022/01/18 00:30:47;;;;;;;8.65;4.38;;;18.00;99.90;;;;;;4228842;27;20225;-77
2022/01/18 00:32:57;;;;;;;10.70;4.20;;;18.00;99.90;;;;;;4229835;27;20241;-77
2022/01/18 00:35:00;;;;;;;7.97;4.38;;;18.10;99.90;;;;;;4235384;27;20222;-77
2022/01/18 00:37:24;;;;;;;8.10;4.30;;;18.00;99.90;;;;;;4228562;28;20234;-77
2022/01/18 00:39:26;;;;;;;7.72;4.30;;;18.00;99.90;;;;;;4232965;27;20218;-77
2022/01/18 00:41:30;;;;;;;7.05;4.15;;;18.10;99.90;;;;;;4237122;27;20282;-77
2022/01/18 00:43:32;;;;;;;8.90;4.00;;;18.00;99.90;;;;;;4230353;27;20621;-76
2022/01/18 00:45:34;;;;;;;9.63;4.20;;;18.00;99.90;;;;;;4233861;27;20213;-77
2022/01/18 00:47:37;;;;;;;7.53;3.63;;;18.00;99.90;;;;;;4232066;27;20218;-77
2022/01/18 00:49:44;;;;;;;11.00;4.55;;;18.00;99.90;;;;;;4231881;27;20217;-77
2022/01/18 00:51:53;;;;;;;7.95;4.00;;;18.00;99.90;;;;;;4231265;27;20202;-77
2022/01/18 00:53:58;;;;;;;6.75;4.00;;;18.00;99.90;;;;;;4230031;27;20309;-77
2022/01/18 00:56:11;;;;;;;7.47;4.22;;;18.00;99.90;;;;;;4228850;28;20218;-77
2022/01/18 00:58:15;;;;;;;5.50;3.80;;;18.00;99.90;;;;;;4228546;28;20268;-77
2022/01/18 01:00:18;;;;;;;9.07;4.25;;;18.00;99.90;;;;;;4236383;27;20621;-77
2022/01/18 01:02:20;;;;;;;9.27;4.35;;;18.00;99.90;;;;;;4233464;27;20230;-77
2022/01/18 01:04:26;;;;;;;7.57;3.90;;;18.00;99.90;;;;;;4230164;27;20209;-77
2022/01/18 01:06:30;;;;;;;8.43;4.32;;;18.00;99.90;;;;;;4228153;28;20226;-77
2022/01/18 01:08:34;;;;;;;8.32;4.45;;;18.00;99.90;;;;;;4228381;28;20206;-77
2022/01/18 01:10:36;;;;;;;9.95;4.38;;;18.00;99.90;;;;;;4230075;28;20532;-78
2022/01/18 01:12:39;;;;;;;6.82;3.97;;;17.90;99.90;;;;;;4228705;27;20214;-77
2022/01/18 01:14:45;;;;;;;6.15;3.75;;;17.90;99.90;;;;;;4228648;27;20234;-77
2022/01/18 01:16:54;;;;;;;8.25;4.20;;;17.90;99.90;;;;;;4227834;28;20225;-77
2022/01/18 01:19:11;;;;;;;7.53;4.00;;;17.90;99.90;;;;;;4228448;27;20247;-77
2022/01/18 01:35:14;;;;;;;8.07;4.03;;;17.90;99.90;;;;;;4226642;27;20206;-77
2022/01/18 01:42:06;;;;;;;10.13;4.35;;;17.90;99.90;;;;;;4228256;28;20210;-77
2022/01/18 01:44:21;;;;;;;7.13;4.35;;;17.90;99.90;;;;;;4231625;27;20206;-77
2022/01/18 01:46:27;;;;;;;7.88;4.07;;;17.80;99.90;;;;;;4228337;27;20206;-77
2022/01/18 01:48:29;;;;;;;9.95;4.50;;;17.80;99.90;;;;;;4231519;27;20251;-77
2022/01/18 01:50:43;;;;;;;7.97;4.60;;;17.90;99.90;;;;;;4228859;27;20221;-77
2022/01/18 01:52:45;;;;;;;9.82;4.32;;;17.80;99.90;;;;;;4232714;27;20464;-77
2022/01/18 01:54:47;;;;;;;11.88;4.65;;;17.80;99.90;;;;;;4227057;28;20254;-77
2022/01/18 01:56:50;;;;;;;8.15;4.20;;;17.80;99.90;;;;;;4227635;28;20732;-77
2022/01/18 01:58:52;;;;;;;9.07;4.63;;;17.80;99.90;;;;;;4231142;27;20265;-77
2022/01/18 02:00:57;;;;;;;8.68;4.32;;;17.80;99.90;;;;;;4230038;27;20222;-77
2022/01/18 02:03:01;;;;;;;11.48;4.60;;;17.80;99.90;;;;;;4227704;28;20241;-77
2022/01/18 02:05:04;;;;;;;7.75;4.80;;;17.80;99.90;;;;;;4226795;28;20271;-77
2022/01/18 02:07:07;;;;;;;7.97;4.30;;;17.80;99.90;;;;;;4227804;28;20979;-77
2022/01/18 02:09:09;;;;;;;8.32;4.35;;;17.80;99.90;;;;;;4227675;28;20205;-76
2022/01/18 02:11:12;;;;;;;10.00;4.57;;;17.80;99.90;;;;;;4231205;27;20620;-77
2022/01/18 02:13:17;;;;;;;7.05;4.55;;;17.80;99.90;;;;;;4227404;28;20270;-77
2022/01/18 02:15:19;;;;;;;7.97;4.57;;;17.80;99.90;;;;;;4226458;28;20210;-77
2022/01/18 02:22:06;;;;;;;8.88;4.70;;;17.80;99.90;;;;;;4234659;27;20218;-77
2022/01/18 02:24:11;;;;;;;6.25;4.32;;;17.80;99.90;;;;;;4227532;28;20646;-76
2022/01/18 02:26:13;;;;;;;9.00;4.93;;;17.80;99.90;;;;;;4233928;28;20261;-77
2022/01/18 02:28:16;;;;;;;11.18;5.22;;;17.80;99.90;;;;;;4235557;27;20466;-77
2022/01/18 02:30:18;;;;;;;10.85;5.47;;;17.80;99.90;;;;;;4233069;28;20294;-77
2022/01/18 02:32:21;;;;;;;7.32;4.43;;;17.70;99.90;;;;;;4231626;27;20279;-76
2022/01/18 02:34:24;;;;;;;8.75;4.90;;;17.70;99.90;;;;;;4232676;27;20213;-77
2022/01/18 02:36:26;;;;;;;8.63;4.40;;;17.70;99.90;;;;;;4227853;28;20740;-77
2022/01/18 02:38:30;;;;;;;8.73;4.88;;;17.70;99.90;;;;;;4231309;28;20209;-76
2022/01/18 02:40:33;;;;;;;10.23;4.90;;;17.70;99.90;;;;;;4228570;28;20217;-77
2022/01/18 02:42:44;;;;;;;8.63;4.50;;;17.70;99.90;;;;;;4231944;28;20237;-77
2022/01/18 02:44:49;;;;;;;12.15;4.55;;;17.70;99.90;;;;;;4229594;28;20217;-77
2022/01/18 02:46:52;;;;;;;9.05;4.55;;;17.70;99.90;;;;;;4230324;28;20218;-77
2022/01/18 02:48:55;;;;;;;7.40;4.45;;;17.70;99.90;;;;;;4231407;28;20271;-78
2022/01/18 02:50:58;;;;;;;8.60;4.82;;;17.70;99.90;;;;;;4226597;28;20269;-76
2022/01/18 02:53:00;;;;;;;9.05;5.00;;;17.70;99.90;;;;;;4230705;28;20213;-76
2022/01/18 02:55:05;;;;;;;9.57;4.70;;;17.70;99.90;;;;;;4225765;28;20267;-76
2022/01/18 02:57:12;;;;;;;10.00;4.55;;;17.70;99.90;;;;;;4226172;28;20554;-76
2022/01/18 02:59:21;;;;;;;10.80;4.75;;;17.70;99.90;;;;;;4226935;28;20610;-76
2022/01/18 03:03:43;;;;;;;11.10;4.80;;;17.70;99.90;;;;;;4229580;28;20198;-76
2022/01/18 03:05:46;;;;;;;10.02;4.72;;;17.70;99.90;;;;;;4228390;28;20655;-77
2022/01/18 03:07:49;;;;;;;12.15;4.93;;;17.70;99.90;;;;;;4228867;28;20583;-77
2022/01/18 03:09:51;;;;;;;10.90;4.88;;;17.70;99.90;;;;;;4229214;28;20206;-77
2022/01/18 03:11:55;;;;;;;7.80;4.32;;;17.60;99.90;;;;;;4228540;28;20712;-77
2022/01/18 03:13:57;;;;;;;11.07;5.25;;;17.70;99.90;;;;;;4227214;28;20635;-77
2022/01/18 03:15:59;;;;;;;10.32;5.22;;;17.60;99.90;;;;;;4228133;28;20275;-77
2022/01/18 03:18:02;;;;;;;12.63;5.35;;;17.60;99.90;;;;;;4228219;28;20247;-77
2022/01/18 03:20:06;;;;;;;9.38;5.28;;;17.60;99.90;;;;;;4228346;28;20222;-77
2022/01/18 03:22:09;;;;;;;8.60;4.80;;;17.60;99.90;;;;;;4227777;28;20561;-77
2022/01/18 03:24:31;;;;;;;9.68;5.20;;;17.60;99.90;;;;;;4234474;28;20218;-77
2022/01/18 03:28:03;;;;;;;8.68;4.72;;;17.60;99.90;;;;;;4231998;28;20218;-77
2022/01/18 03:28:56;;;;;;;8.40;4.60;;;17.60;99.90;;;;;;4225610;28;20699;-77
2022/01/18 03:30:59;;;;;;;11.75;5.22;;;17.60;99.90;;;;;;4229311;28;20206;-77
2022/01/18 03:33:02;;;;;;;9.32;4.75;;;17.60;99.90;;;;;;4230138;28;20225;-77
2022/01/18 03:35:07;;;;;;;8.88;4.95;;;17.60;99.90;;;;;;4226674;28;20662;-77
2022/01/18 03:37:09;;;;;;;9.25;4.80;;;17.60;99.90;;;;;;4232388;28;20214;-77
2022/01/18 03:39:12;;;;;;;10.32;4.75;;;17.60;99.90;;;;;;4232503;28;20217;-76
2022/01/18 03:41:14;;;;;;;8.00;4.30;;;17.60;99.90;;;;;;4232226;27;20618;-76
2022/01/18 03:43:18;;;;;;;8.20;5.07;;;17.60;99.90;;;;;;4232909;27;20229;-76
2022/01/18 03:45:27;;;;;;;10.98;4.95;;;17.60;99.90;;;;;;4235391;27;20270;-77
2022/01/18 03:47:30;;;;;;;11.95;5.07;;;17.60;99.90;;;;;;4233107;27;20213;-77
2022/01/18 03:49:36;;;;;;;8.73;4.95;;;17.50;99.90;;;;;;4230631;27;20236;-76
2022/01/18 03:51:38;;;;;;;7.57;4.60;;;17.60;99.90;;;;;;4236316;27;20257;-77
2022/01/18 03:53:41;;;;;;;10.65;5.05;;;17.50;99.90;;;;;;4229132;28;21778;-77
2022/01/18 03:55:43;;;;;;;9.15;4.95;;;17.60;99.90;;;;;;4230036;27;20239;-77
2022/01/18 03:57:46;;;;;;;8.85;4.93;;;17.50;99.90;;;;;;4229784;27;20210;-76
2022/01/18 03:59:48;;;;;;;9.63;4.97;;;17.50;99.90;;;;;;4230076;27;20206;-76
2022/01/18 04:01:52;;;;;;;12.35;5.65;;;17.50;99.90;;;;;;4234793;27;20603;-75
2022/01/18 04:03:54;;;;;;;11.48;5.35;;;17.50;99.90;;;;;;4237136;27;20625;-76
2022/01/18 04:05:56;;;;;;;13.32;5.22;;;17.50;99.90;;;;;;4228900;28;20255;-77
2022/01/18 04:07:59;;;;;;;9.70;4.82;;;17.50;99.90;;;;;;4231457;27;20218;-77
2022/01/18 04:10:01;;;;;;;11.88;5.45;;;17.50;99.90;;;;;;4230765;27;20262;-78
2022/01/18 04:12:04;;;;;;;12.40;5.68;;;17.50;99.90;;;;;;4235187;27;20210;-76
2022/01/18 04:14:07;;;;;;;9.80;5.22;;;17.50;99.90;;;;;;4232516;27;20222;-76
2022/01/18 04:16:09;;;;;;;8.68;4.60;;;17.50;99.90;;;;;;4237051;27;20229;-76
2022/01/18 04:18:23;;;;;;;12.38;5.15;;;17.50;99.90;;;;;;4230764;27;20284;-76
2022/01/18 04:27:25;;;;;;;9.52;4.60;;;17.50;99.90;;;;;;4230446;27;20190;-76
2022/01/18 04:29:27;;;;;;;12.32;5.57;;;17.50;99.90;;;;;;4233452;27;20214;-76
2022/01/18 04:31:30;;;;;;;6.88;4.53;;;17.50;99.90;;;;;;4229119;27;20855;-81
2022/01/18 04:33:37;;;;;;;8.80;5.00;;;17.50;99.90;;;;;;4234389;27;20246;-81
2022/01/18 04:35:41;;;;;;;9.75;4.68;;;17.40;99.90;;;;;;4230194;27;20229;-81
2022/01/18 04:37:43;;;;;;;10.18;5.03;;;17.50;99.90;;;;;;4233576;27;20254;-81
2022/01/18 04:39:46;;;;;;;10.18;5.22;;;17.50;99.90;;;;;;4232130;27;20213;-81
2022/01/18 04:41:49;;;;;;;9.40;5.18;;;17.50;99.90;;;;;;4229863;27;20926;-81
2022/01/18 04:44:06;;;;;;;8.27;5.20;;;17.40;99.90;;;;;;4230205;28;20237;-82
2022/01/18 04:48:29;;;;;;;8.60;4.90;;;17.40;99.90;;;;;;4232172;27;20201;-82
2022/01/18 04:50:32;;;;;;;9.73;4.95;;;17.40;99.90;;;;;;4232198;27;20249;-80
2022/01/18 04:52:35;;;;;;;10.95;5.20;;;17.40;99.90;;;;;;4233046;27;20217;-80
2022/01/18 04:54:42;;;;;;;8.07;5.15;;;17.40;99.90;;;;;;4234671;27;20218;-80
2022/01/18 04:59:06;;;;;;;10.30;5.72;;;17.40;99.90;;;;;;4231669;27;20198;-81
2022/01/18 05:01:09;;;;;;;12.35;5.68;;;17.40;99.90;;;;;;4230724;27;20214;-81
2022/01/18 05:03:12;;;;;;;12.77;5.80;;;17.40;99.90;;;;;;4231851;27;20249;-80
2022/01/18 05:05:22;;;;;;;12.05;5.30;;;17.40;99.90;;;;;;4235723;27;21761;-80
2022/01/18 05:07:26;;;;;;;9.73;4.70;;;17.40;99.90;;;;;;4230558;27;20270;-81
2022/01/18 05:09:29;;;;;;;8.25;4.90;;;17.40;99.90;;;;;;4231520;27;20209;-81
2022/01/18 05:11:36;;;;;;;10.38;5.25;;;17.40;99.90;;;;;;4235366;27;20214;-81
2022/01/18 05:14:27;;;;;;;11.10;5.63;;;17.40;99.90;;;;;;4228845;27;20205;-81
2022/01/18 05:16:49;;;;;;;11.15;5.18;;;17.40;99.90;;;;;;4229953;27;20217;-81
2022/01/18 05:19:05;;;;;;;8.77;5.43;;;17.40;99.90;;;;;;4232526;27;20254;-81
2022/01/18 05:21:19;;;;;;;8.93;4.88;;;17.40;99.90;;;;;;4229480;27;20220;-80
2022/01/18 05:23:22;;;;;;;11.32;5.45;;;17.30;99.90;;;;;;4233219;27;20241;-80
2022/01/18 05:25:26;;;;;;;10.27;5.05;;;17.30;99.90;;;;;;4231098;27;20255;-81
2022/01/18 05:27:28;;;;;;;9.15;4.80;;;17.30;99.90;;;;;;4230594;27;20270;-80
2022/01/18 05:29:30;;;;;;;10.85;5.35;;;17.30;99.90;;;;;;4230630;27;20213;-81
2022/01/18 05:31:33;;;;;;;8.75;5.15;;;17.30;99.90;;;;;;4234156;27;20715;-83
2022/01/18 05:33:35;;;;;;;12.07;5.85;;;17.30;99.90;;;;;;4228682;28;20643;-81
2022/01/18 05:35:38;;;;;;;9.55;4.97;;;17.30;99.90;;;;;;4230791;27;20263;-81
2022/01/18 05:37:40;;;;;;;10.52;5.57;;;17.30;99.90;;;;;;4230140;27;20267;-81
2022/01/18 05:39:44;;;;;;;12.48;5.53;;;17.30;99.90;;;;;;4229315;28;21474;-82
2022/01/18 05:41:47;;;;;;;13.98;5.97;;;17.30;99.90;;;;;;4229586;27;20274;-81
2022/01/18 05:43:49;;;;;;;10.98;5.53;;;17.30;99.90;;;;;;4233002;27;20225;-81
2022/01/18 05:45:51;;;;;;;9.52;5.50;;;17.30;99.90;;;;;;4237871;27;20208;-80
2022/01/18 05:47:54;;;;;;;12.77;5.78;;;17.30;99.90;;;;;;4232532;27;20234;-81
2022/01/18 05:49:56;;;;;;;10.70;5.90;;;17.30;99.90;;;;;;4232237;27;20213;-80
2022/01/18 05:51:58;;;;;;;9.63;4.90;;;17.30;99.90;;;;;;4229027;28;20214;-80
2022/01/18 05:54:01;;;;;;;8.30;5.03;;;17.20;99.90;;;;;;4234008;27;20218;-80
2022/01/18 05:56:06;;;;;;;8.88;5.03;;;16.90;99.90;;;;;;4232541;27;20214;-80
2022/01/18 05:58:09;;;;;;;10.85;5.63;;;16.90;99.90;;;;;;4229961;27;20206;-81
2022/01/18 06:00:20;;;;;;;10.13;5.68;;;17.00;99.90;;;;;;4229022;28;20217;-80
2022/01/18 06:02:35;;;;;;;11.25;5.00;;;17.10;99.90;;;;;;4231291;27;20668;-80
2022/01/18 06:06:57;;;;;;;11.98;5.90;;;17.30;99.90;;;;;;4231865;27;20197;-80
2022/01/18 06:09:00;;;;;;;10.35;5.65;;;17.30;99.90;;;;;;4231283;28;20222;-80
2022/01/18 06:11:04;;;;;;;7.85;5.35;;;17.40;99.90;;;;;;4232802;27;20210;-80
2022/01/18 06:13:07;;;;;;;7.20;5.13;;;17.40;99.90;;;;;;4228916;28;20218;-80
2022/01/18 06:15:10;;;;;;;8.52;4.82;;;17.40;99.90;;;;;;4227445;28;20202;-80
2022/01/18 06:17:13;;;;;;;8.40;4.97;;;17.50;99.90;;;;;;4229073;27;20202;-81
2022/01/18 06:19:15;;;;;;;10.82;4.93;;;17.50;99.90;;;;;;4230883;27;20259;-80
2022/01/18 06:21:17;;;;;;;7.85;4.68;;;17.40;99.90;;;;;;4228323;28;20218;-81
2022/01/18 06:23:20;;;;;;;10.68;5.70;;;17.50;99.90;;;;;;4230541;28;20225;-81
2022/01/18 06:25:23;;;;;;;10.30;5.57;;;17.40;99.90;;;;;;4228831;28;20262;-81
2022/01/18 06:27:27;;;;;;;9.82;5.28;;;17.40;99.90;;;;;;4226197;28;20206;-80
2022/01/18 06:29:29;;;;;;;9.43;5.40;;;17.40;99.90;;;;;;4230452;27;20266;-80
2022/01/18 06:31:32;;;;;;;9.07;5.07;;;17.40;99.90;;;;;;4229321;27;20209;-81
2022/01/18 06:33:34;;;;;;;8.55;4.72;;;17.50;99.90;;;;;;4227648;28;20384;-80
2022/01/18 06:35:36;;;;;;;9.30;4.97;;;17.50;99.90;;;;;;4227249;28;20251;-80
2022/01/18 06:37:40;;;;;;;9.75;5.43;;;17.50;99.90;;;;;;4229448;28;20278;-80
2022/01/18 06:39:43;;;;;;;9.43;5.53;;;17.50;99.90;;;;;;4227929;28;20214;-80
2022/01/18 06:41:45;;;;;;;9.02;5.10;;;17.50;99.90;;;;;;4231220;28;20243;-81
2022/01/18 06:43:49;;;;;;;9.15;5.35;;;17.50;99.90;;;;;;4229303;28;20218;-81
2022/01/18 06:45:52;;;;;;;11.38;4.93;;;17.50;99.90;;;;;;4230400;28;20222;-81
2022/01/18 06:47:54;;;;;;;8.45;4.85;;;17.50;99.90;;;;;;4230107;28;20267;-81
2022/01/18 06:49:56;;;;;;;8.60;4.95;;;17.50;99.90;;;;;;4234968;28;20239;-81
2022/01/18 06:51:59;;;;;;;10.13;5.22;;;17.60;99.90;;;;;;4231609;28;20205;-81
2022/01/18 06:54:01;;;;;;;9.98;5.25;;;17.60;99.90;;;;;;4234521;28;20250;-80
2022/01/18 06:56:05;;;;;;;8.48;5.30;;;17.60;99.90;;;;;;4235554;28;20254;-81
2022/01/18 06:58:07;;;;;;;9.68;5.13;;;17.60;99.90;;;;;;4230528;28;20218;-81
2022/01/18 07:00:12;;;;;;;8.20;4.47;;;17.60;99.90;;;;;;4229356;28;20217;-81
2022/01/18 07:02:15;;;;;;;10.93;5.03;;;17.60;99.90;;;;;;4227576;28;20210;-81
2022/01/18 07:04:17;;;;;;;8.63;5.22;;;17.60;99.90;;;;;;4226227;28;20246;-81
2022/01/18 07:06:20;;;;;;;8.63;4.60;;;17.60;99.90;;;;;;4228375;28;20568;-81
2022/01/18 07:08:22;;;;;;;9.88;4.80;;;17.70;99.90;;;;;;4228416;28;20282;-81
2022/01/18 07:10:25;;;;;;;9.85;5.45;;;17.60;99.90;;;;;;4232787;28;20261;-81
2022/01/18 07:12:30;;;;;;;6.47;4.68;;;17.60;99.90;;;;;;4231211;28;20217;-81
2022/01/18 07:14:32;;;;;;;6.85;4.65;;;17.70;99.90;;;;;;4230636;28;20666;-81
2022/01/18 07:16:36;;;;;;;8.07;4.68;;;17.60;99.90;;;;;;4229163;28;20267;-81
2022/01/18 07:18:38;;;;;;;8.23;4.85;;;17.60;99.90;;;;;;4235440;27;20673;-81
2022/01/18 07:20:41;;;;;;;10.20;4.85;;;17.70;99.90;;;;;;4236295;27;20206;-81
2022/01/18 07:22:43;;;;;;;6.30;4.15;;;17.70;99.90;;;;;;4230541;28;20262;-81
2022/01/18 07:24:46;;;;;;;9.10;4.72;;;17.70;99.90;;;;;;4232665;27;20229;-81
2022/01/18 07:26:48;;;;;;;6.68;4.40;;;17.70;99.90;;;;;;4231821;27;21541;-81
2022/01/18 07:28:51;;;;;;;8.55;4.53;;;17.70;99.90;;;;;;4234511;27;20217;-81
2022/01/18 07:30:53;;;;;;;9.32;4.95;;;17.70;99.90;;;;;;4231578;27;20278;-81
2022/01/18 07:32:57;;;;;;;7.50;4.70;;;17.70;99.90;;;;;;4240289;27;20765;-81
2022/01/18 07:34:59;;;;;;;7.28;4.25;;;17.80;99.90;;;;;;4233799;27;20250;-81
2022/01/18 07:37:02;;;;;;;7.55;4.55;;;17.70;99.90;;;;;;4237229;27;20214;-81
2022/01/18 07:39:04;;;;;;;8.13;4.72;;;17.80;99.90;;;;;;4231467;27;20209;-81
2022/01/18 07:41:07;;;;;;;7.72;4.53;;;17.80;99.90;;;;;;4233879;27;20213;-81
2022/01/18 07:43:10;;;;;;;8.35;4.40;;;17.80;99.90;;;;;;4233404;27;20214;-81
2022/01/18 07:45:13;;;;;;;5.40;4.00;;;17.80;99.90;;;;;;4235850;27;20233;-81
2022/01/18 07:47:16;;;;;;;7.53;5.20;;;17.80;99.90;;;;;;4233668;27;20239;-80
2022/01/18 07:49:19;;;;;;;10.02;5.25;;;17.90;99.90;;;;;;4229022;27;20665;-79
2022/01/18 07:51:22;;;;;;;13.07;6.30;;;17.90;99.90;;;;;;4223578;27;20266;-78
2022/01/18 07:53:24;;;;;;;6.97;4.93;;;18.00;99.90;;;;;;4227193;28;20213;-78
2022/01/18 07:55:27;;;;;;;7.93;4.25;;;18.00;99.90;;;;;;4231872;27;20214;-79
2022/01/18 07:57:30;;;;;;;7.55;4.32;;;18.00;99.90;;;;;;4226670;28;20214;-79
2022/01/18 07:59:32;;;;;;;7.32;5.13;;;18.00;99.90;;;;;;4229988;27;20210;-79
2022/01/18 08:01:34;;;;;;;9.15;4.45;;;18.00;99.90;;;;;;4227260;27;20216;-78
2022/01/18 08:03:37;;;;;;;12.73;5.57;;;18.10;99.90;;;;;;4225949;28;20244;-79
2022/01/18 08:05:41;;;;;;;8.30;5.40;;;18.00;99.90;;;;;;4227131;27;20326;-78
2022/01/18 08:07:43;;;;;;;9.15;5.15;;;17.90;99.90;;;;;;4226294;27;20274;-78
2022/01/18 08:09:45;;;;;;;7.97;5.15;;;17.90;99.90;;;;;;4226597;28;20251;-78
2022/01/18 08:11:50;;;;;;;9.77;5.25;;;18.00;99.90;;;;;;4224544;27;20270;-72
2022/01/18 08:13:52;;;;;;;10.02;4.60;;;18.00;99.90;;;;;;4224511;27;20282;-72
2022/01/18 08:16:09;;;;;;;10.70;5.55;;;18.00;99.90;;;;;;4224777;28;20218;-72
2022/01/18 08:18:13;;;;;;;7.97;4.78;;;18.10;99.90;;;;;;4227662;27;20287;-74
2022/01/18 08:20:18;;;;;;;9.00;4.78;;;18.20;99.90;;;;;;4222208;27;20218;-72
2022/01/18 08:22:21;;;;;;;9.40;4.65;;;18.30;99.90;;;;;;4226810;27;20217;-72
2022/01/18 08:24:24;;;;;;;9.23;4.32;;;18.40;99.90;;;;;;4225391;27;20222;-71
2022/01/18 08:26:27;;;;;;;10.45;4.57;;;18.60;99.90;;;;;;4223818;27;20286;-71
2022/01/18 08:28:29;;;;;;;10.30;4.80;;;18.70;99.90;;;;;;4235831;27;20282;-72
2022/01/18 08:30:32;;;;;;;9.93;5.07;;;18.80;99.90;;;;;;4226943;27;20225;-70
2022/01/18 08:32:35;;;;;;;7.43;4.60;;;18.90;99.90;;;;;;4224235;27;20242;-71
2022/01/18 08:34:37;;;;;;;10.35;4.32;;;18.90;99.90;;;;;;4230053;27;20213;-71
2022/01/18 08:36:40;;;;;;;9.93;4.80;;;19.00;99.90;;;;;;4224259;27;20218;-71
2022/01/18 08:38:46;;;;;;;7.30;4.40;;;19.10;99.90;;;;;;4228305;27;20263;-71
2022/01/18 08:40:49;;;;;;;8.23;4.70;;;19.10;99.90;;;;;;4230051;27;20222;-73
2022/01/18 08:42:52;;;;;;;8.77;4.80;;;19.10;99.90;;;;;;4228519;27;20205;-72
2022/01/18 08:44:55;;;;;;;10.07;4.75;;;19.20;99.90;;;;;;4227704;27;20258;-72
2022/01/18 08:46:57;;;;;;;10.48;5.20;;;19.30;99.90;;;;;;4229358;27;20265;-72
2022/01/18 08:49:00;;;;;;;11.05;5.25;;;19.30;99.90;;;;;;4231241;27;20276;-73
2022/01/18 08:51:03;;;;;;;9.55;4.45;;;19.40;99.90;;;;;;4229649;27;20281;-71
2022/01/18 08:53:06;;;;;;;9.10;4.55;;;19.40;99.90;;;;;;4222744;27;20221;-72
2022/01/18 08:55:10;;;;;;;7.97;4.50;;;19.50;99.90;;;;;;4222440;27;20218;-73
2022/01/18 08:57:15;;;;;;;9.02;4.25;;;19.50;99.90;;;;;;4224369;28;20213;-72
2022/01/18 08:59:17;;;;;;;5.53;4.25;;;19.60;99.90;;;;;;4221456;28;20615;-71
2022/01/18 09:01:19;;;;;;;5.82;4.05;;;19.60;99.90;;;;;;4223859;27;20697;-71
2022/01/18 09:03:22;;;;;;;9.18;4.10;;;19.60;99.90;;;;;;4226166;27;20308;-71
2022/01/18 09:05:25;;;;;;;9.75;4.53;;;19.60;99.90;;;;;;4224724;28;20234;-72
2022/01/18 09:07:27;;;;;;;7.32;4.50;;;19.70;99.90;;;;;;4229324;27;20270;-71
2022/01/18 09:09:29;;;;;;;7.10;4.70;;;19.80;99.90;;;;;;4225718;28;20318;-72
2022/01/18 09:11:33;;;;;;;8.18;4.63;;;19.90;99.90;;;;;;4229858;27;20282;-71
2022/01/18 09:13:35;;;;;;;7.35;4.20;;;19.80;99.90;;;;;;4224317;27;20218;-71
2022/01/18 09:15:38;;;;;;;7.88;4.53;;;19.90;99.90;;;;;;4214341;27;20214;-72
2022/01/18 09:17:41;;;;;;;7.70;4.55;;;20.00;99.90;;;;;;4222790;27;20219;-72
2022/01/18 09:19:43;;;;;;;9.57;4.45;;;20.00;99.90;;;;;;4227344;27;20210;-71
2022/01/18 09:21:48;;;;;;;8.07;3.95;;;20.00;99.90;;;;;;4226208;27;20255;-72
2022/01/18 09:23:50;;;;;;;6.47;4.38;;;20.00;99.90;;;;;;4227011;27;20263;-71
2022/01/18 09:25:53;;;;;;;10.60;4.72;;;20.10;99.90;;;;;;4232009;27;20237;-72
2022/01/18 09:27:57;;;;;;;6.97;4.68;;;20.10;99.90;;;;;;4227924;27;20205;-72
2022/01/18 09:30:00;;;;;;;7.25;4.40;;;20.10;99.90;;;;;;4224657;27;20272;-71
2022/01/18 09:32:04;;;;;;;11.13;5.10;;;20.20;99.90;;;;;;4226484;28;20218;-73
2022/01/18 09:34:06;;;;;;;14.85;5.18;;;20.20;99.90;;;;;;4219318;28;20936;-72
2022/01/18 09:36:09;;;;;;;8.30;4.68;;;20.10;99.90;;;;;;4227419;27;20559;-71
2022/01/18 09:38:12;;;;;;;7.57;4.35;;;20.00;99.90;;;;;;4228736;27;20279;-72
2022/01/18 09:40:18;;;;;;;10.32;4.50;;;20.20;99.90;;;;;;4220662;28;20274;-71
2022/01/18 09:42:22;;;;;;;7.45;4.22;;;20.20;99.90;;;;;;4226549;27;20221;-71
2022/01/18 09:44:26;;;;;;;7.88;4.60;;;20.30;99.90;;;;;;4227245;27;20210;-71
2022/01/18 09:46:29;;;;;;;6.53;4.30;;;20.40;99.90;;;;;;4226388;27;20733;-72
2022/01/18 09:48:31;;;;;;;7.05;4.32;;;20.40;99.90;;;;;;4226580;27;20214;-71
2022/01/18 09:50:35;;;;;;;7.97;4.47;;;20.40;99.90;;;;;;4223681;28;21638;-72
2022/01/18 09:52:38;;;;;;;9.20;4.93;;;20.30;99.90;;;;;;4227433;27;20210;-72
2022/01/18 09:54:40;;;;;;;6.85;4.57;;;20.40;99.90;;;;;;4227215;27;20799;-71
2022/01/18 09:56:43;;;;;;;7.88;4.65;;;20.40;99.90;;;;;;4232398;27;20213;-71
2022/01/18 09:58:46;;;;;;;8.82;4.82;;;20.40;99.90;;;;;;4228058;27;20213;-72
2022/01/18 10:00:52;;;;;;;12.07;4.72;;;20.50;99.90;;;;;;4228623;27;20282;-73
2022/01/18 10:02:54;;;;;;;12.38;4.15;;;20.50;99.90;;;;;;4227373;27;20210;-72
2022/01/18 10:04:59;;;;;;;8.93;4.63;;;20.60;99.90;;;;;;4227119;27;20613;-73
2022/01/18 10:07:01;;;;;;;11.00;4.25;;;20.60;99.90;;;;;;4223135;27;20233;-73
2022/01/18 10:09:04;;;;;;;7.43;4.63;;;20.50;99.90;;;;;;4232267;27;20373;-72
2022/01/18 10:11:10;;;;;;;8.52;4.90;;;20.50;99.90;;;;;;4225850;28;20275;-73
2022/01/18 10:13:18;;;;;;;6.40;4.30;;;20.60;99.90;;;;;;4233336;27;20213;-73
2022/01/18 10:15:21;;;;;;;8.77;4.28;;;20.60;99.90;;;;;;4220676;28;20878;-73
2022/01/18 10:17:31;;;;;;;8.85;4.38;;;20.60;99.90;;;;;;4227953;27;20217;-72
2022/01/18 10:19:37;;;;;;;7.15;4.05;;;20.60;99.90;;;;;;4224573;28;20218;-75
2022/01/18 10:21:44;;;;;;;7.25;4.60;;;20.70;99.90;;;;;;4224088;28;20267;-76
2022/01/18 10:23:49;;;;;;;8.75;4.57;;;20.70;99.90;;;;;;4222106;28;20221;-74
2022/01/18 10:25:52;;;;;;;9.85;4.22;;;20.70;99.90;;;;;;4226278;28;20977;-75
2022/01/18 10:27:56;;;;;;;7.93;4.53;;;20.70;99.90;;;;;;4225279;27;20607;-74
2022/01/18 10:30:06;;;;;;;14.65;5.05;;;20.70;99.90;;;;;;4222027;28;23464;-73
2022/01/18 10:32:13;;;;;;;7.43;4.55;;;20.70;99.90;;;;;;4224527;27;20234;-74
2022/01/18 10:34:29;;;;;;;7.28;4.60;;;20.80;99.90;;;;;;4206607;28;21023;-72
2022/01/18 10:36:31;;;;;;;8.60;4.65;;;20.90;99.90;;;;;;4209355;28;20218;-72
2022/01/18 10:38:33;;;;;;;8.05;4.43;;;20.90;99.90;;;;;;4206656;28;20211;-72
2022/01/18 10:40:36;;;;;;;6.95;4.13;;;20.90;99.90;;;;;;4207001;28;20252;-72
2022/01/18 10:42:46;;;;;;;8.15;4.38;;;20.90;99.90;;;;;;4208880;28;20341;-73
2022/01/18 10:44:49;;;;;;;7.25;4.40;;;20.90;99.90;;;;;;4210429;28;20259;-73
2022/01/18 10:46:54;;;;;;;9.60;4.82;;;20.90;99.90;;;;;;4207379;28;20234;-73
2022/01/18 10:48:56;;;;;;;6.78;4.43;;;20.90;99.90;;;;;;4205679;28;20600;-74
2022/01/18 10:51:01;;;;;;;10.20;4.70;;;21.00;99.90;;;;;;4211263;28;20272;-74
2022/01/18 10:53:14;;;;;;;8.43;4.45;;;21.10;99.90;;;;;;4211281;28;20210;-73
2022/01/18 10:55:20;;;;;;;7.00;4.90;;;21.10;99.90;;;;;;4211557;28;20855;-73
2022/01/18 10:57:25;;;;;;;9.05;4.72;;;21.10;99.90;;;;;;4212465;28;20336;-74
2022/01/18 10:59:27;;;;;;;9.45;5.00;;;21.00;99.90;;;;;;4209781;28;20275;-74
2022/01/18 11:01:31;;;;;;;7.90;4.63;;;21.10;99.90;;;;;;4209499;28;20210;-75
2022/01/18 11:03:33;;;;;;;6.47;4.53;;;21.10;99.90;;;;;;4214297;28;20210;-73
2022/01/18 11:05:37;;;;;;;11.05;5.00;;;21.10;99.90;;;;;;4213276;28;20215;-72
2022/01/18 11:07:42;;;;;;;12.07;5.85;;;21.10;99.90;;;;;;4210711;28;20233;-73
2022/01/18 11:09:44;;;;;;;10.80;5.18;;;21.10;99.90;;;;;;4212921;28;20738;-73
2022/01/18 11:11:48;;;;;;;9.25;4.72;;;21.20;99.90;;;;;;4212393;28;20275;-74
2022/01/18 11:13:50;;;;;;;9.88;4.75;;;21.20;99.90;;;;;;4210618;28;20203;-76
2022/01/18 11:16:03;;;;;;;8.13;4.80;;;21.20;99.90;;;;;;4210615;28;20222;-76
2022/01/18 11:18:14;;;;;;;7.95;4.50;;;21.20;99.90;;;;;;4212081;28;20223;-75
2022/01/18 11:20:18;;;;;;;5.68;4.10;;;21.30;99.90;;;;;;4212033;28;20218;-75
2022/01/18 11:22:24;;;;;;;6.82;4.50;;;21.30;99.90;;;;;;4210101;28;20340;-75
2022/01/18 11:24:30;;;;;;;10.10;4.55;;;21.30;99.90;;;;;;4213040;28;20671;-75